Data for 05/13/2008

Time Sea-Level Adjusted Pressure Absolute Pressure Temperature Relative Humidity Dew Point   
(mb) (inHg) (mb) (inHg) (C) (F) (%) (C) (F)
00:05 1020 30.12 849 25.07 2.8 37.1 94 1.9 35.4
00:10 1020 30.12 849 25.07 2.7 36.8 94 1.8 35.3
00:15 1020 30.12 849 25.07 2.5 36.5 95 1.7 35.1
00:20 1020 30.12 849 25.07 2.3 36.2 95 1.6 34.9
00:25 1020 30.12 849 25.07 2.3 36.1 95 1.6 34.9
00:30 1020 30.12 849 25.07 2.4 36.3 95 1.7 35.1
00:35 1020 30.12 849 25.07 2.5 36.4 95 1.8 35.2
00:40 1020 30.12 849 25.07 2.4 36.3 96 1.8 35.2
00:45 1020 30.12 849 25.07 2.3 36.2 95 1.7 35
00:50 1020 30.12 849 25.07 2.3 36.1 95 1.6 34.9
00:55 1020 30.12 849 25.07 2.4 36.2 95 1.7 35
01:00 1020 30.12 849 25.07 2.4 36.4 95 1.7 35.1
01:05 1020 30.12 849 25.07 2.4 36.4 95 1.7 35
01:10 1020 30.12 849 25.07 2.5 36.4 95 1.7 35.1
01:15 1020 30.12 849 25.07 2.5 36.5 95 1.7 35.1
01:20 1020 30.12 849 25.07 2.4 36.4 95 1.7 35
01:25 1020 30.12 849 25.07 2.3 36.2 95 1.6 34.9
01:30 1020 30.12 849 25.07 2.3 36.1 95 1.5 34.8
01:35 1020 30.12 849 25.07 2.4 36.3 95 1.7 35
01:40 1020 30.12 849 25.07 2.5 36.4 95 1.7 35.1
01:45 1020 30.12 849 25.07 2.4 36.4 95 1.7 35.1
01:50 1020 30.12 849 25.07 2.3 36.1 95 1.6 34.8
01:55 1020 30.12 849 25.07 2 35.5 96 1.4 34.5
02:00 1020 30.12 849 25.07 1.7 35 97 1.2 34.2
02:05 1020 30.12 849 25.07 1.7 35.1 97 1.3 34.4
02:10 1020 30.12 849 25.07 1.7 35.1 98 1.4 34.5
02:15 1020 30.12 849 25.07 1.8 35.2 98 1.5 34.6
02:20 1020 30.12 849 25.07 1.8 35.2 98 1.5 34.6
02:25 1020 30.12 849 25.07 1.8 35.2 98 1.5 34.6
02:30 1020 30.12 849 25.07 1.8 35.2 98 1.4 34.6
02:35 1020 30.12 849 25.07 1.8 35.2 98 1.5 34.6
02:40 1020 30.12 849 25.07 1.8 35.2 98 1.5 34.7
02:45 1020 30.12 849 25.07 1.8 35.2 98 1.5 34.6
02:50 1020 30.12 849 25.07 1.6 34.9 98 1.3 34.3
02:55 1020 30.12 849 25.07 1.5 34.7 98 1.3 34.3
03:00 1020 30.12 849 25.07 1.6 34.8 98 1.3 34.4
03:05 1020 30.12 849 25.07 1.6 34.8 98 1.3 34.3
03:10 1020 30.12 849 25.07 1.4 34.5 98 1.1 34
03:15 1020 30.12 849 25.07 1.3 34.3 98 1 33.8
03:20 1020 30.12 849 25.07 1.2 34.1 99 1 33.7
03:25 1020 30.12 849 25.07 1.1 33.9 99 0.9 33.6
03:30 1020 30.12 849 25.07 1 33.9 99 0.9 33.6
03:35 1020 30.12 849 25.07 1.1 34 99 1 33.8
03:40 1020 30.12 849 25.07 1.2 34.1 99 1.1 34
03:45 1020 30.12 849 25.07 1.3 34.3 99 1.2 34.1
03:50 1020 30.12 849 25.07 1.3 34.3 99 1.2 34.1
03:55 1020 30.12 849 25.07 1.2 34.2 164 8.2 46.8
04:00 1020 30.12 849 25.07 1.1 33.9 164 8.1 46.6
04:05 1020 30.12 849 25.07 1.1 33.9 164 8.1 46.6
04:10 1020 30.12 849 25.07 1.2 34.1 164 8.2 46.8
04:15 1020 30.12 849 25.07 1.3 34.3 164 8.4 47
04:20 1020 30.12 849 25.07 1.3 34.4 164 8.4 47.1
04:25 1020 30.12 849 25.07 1.2 34.1 164 8.2 46.8
04:30 1020 30.12 849 25.07 1 33.8 164 8.1 46.5
04:35 1020 30.12 849 25.07 0.9 33.6 164 7.9 46.3
04:40 1020 30.12 849 25.07 1 33.9 164 8.1 46.5
04:45 1020 30.12 849 25.07 1.1 34 164 8.2 46.7
04:50 1019 30.09 849 25.07 1 33.8 164 8 46.5
04:55 1019 30.09 849 25.07 1 33.7 164 8 46.4
05:00 1019 30.09 849 25.07 1 33.8 164 8 46.5
05:05 1019 30.09 849 25.07 1.1 34 164 8.2 46.7
05:10 1019 30.09 849 25.07 1.2 34.1 164 8.2 46.8
05:15 1019 30.09 849 25.07 0.8 33.4 164 7.8 46
05:20 1019 30.09 849 25.07 0.7 33.2 164 7.7 45.8
05:25 1019 30.09 849 25.07 0.7 33.3 164 7.8 46
05:30 1019 30.09 849 25.07 0.6 33.1 164 7.6 45.7
05:35 1020 30.12 849 25.07 0.5 32.8 164 7.5 45.5
05:40 1020 30.12 849 25.07 0.5 32.9 164 7.5 45.5
05:45 1020 30.12 849 25.07 0.4 32.7 164 7.4 45.4
05:50 1020 30.12 849 25.07 0.4 32.7 164 7.4 45.4
05:55 1020 30.12 849 25.07 0.5 32.8 164 7.5 45.5
06:00 1020 30.12 849 25.07 0.5 33 164 7.6 45.6
06:05 1020 30.12 849 25.07 0.5 32.9 164 7.6 45.6
06:10 1020 30.12 849 25.07 0.6 33.2 164 7.7 45.8
06:15 1020 30.12 849 25.07 0.7 33.3 164 7.8 46
06:20 1020 30.12 849 25.07 0.6 33.1 164 7.6 45.7
06:25 1020 30.12 849 25.07 0.6 33 164 7.6 45.7
06:30 1020 30.12 850 25.1 0.5 32.9 164 7.5 45.5
06:35 1020 30.12 850 25.1 0.5 32.9 164 7.5 45.5
06:40 1020 30.12 850 25.1 0.6 33.1 164 7.6 45.8
06:45 1020 30.12 850 25.1 0.8 33.4 164 7.8 46
06:50 1020 30.12 850 25.1 0.7 33.3 164 7.8 46
06:55 1020 30.12 850 25.1 0.8 33.5 164 7.9 46.2
07:00 1021 30.15 850 25.1 0.8 33.4 164 7.8 46.1
07:05 1021 30.15 850 25.1 0.7 33.2 164 7.7 45.9
07:10 1021 30.15 850 25.1 0.8 33.4 164 7.8 46.1
07:15 1021 30.15 850 25.1 0.8 33.5 164 7.9 46.2
07:20 1021 30.15 850 25.1 1 33.7 164 8 46.4
07:25 1021 30.15 850 25.1 1.4 34.5 164 8.4 47.2
07:30 1021 30.15 850 25.1 1.7 35.1 164 8.8 47.9
07:35 1021 30.15 850 25.1 2.1 35.7 164 9.2 48.5
07:40 1021 30.15 850 25.1 2.5 36.5 164 9.6 49.3
07:45 1021 30.15 850 25.1 3 37.3 164 10.1 50.2
07:50 1021 30.15 850 25.1 3.1 37.5 90 1.5 34.7
07:55 1021 30.15 850 25.1 3 37.3 90 1.4 34.6
08:00 1021 30.15 850 25.1 3.1 37.5 90 1.5 34.7
08:05 1021 30.15 850 25.1 3.4 38 89 1.7 35
08:10 1021 30.15 850 25.1 3.8 38.8 88 1.9 35.5
08:15 1020 30.12 850 25.1 4.2 39.6 86 2.1 35.7
08:20 1020 30.12 850 25.1 4.5 40.1 84 2 35.6
08:25 1020 30.12 850 25.1 4.7 40.5 82 1.9 35.4
08:30 1020 30.12 850 25.1 5 41 80 1.9 35.4
08:35 1020 30.12 849 25.07 5.3 41.6 78 1.9 35.3
08:40 1020 30.12 850 25.1 5.5 41.9 77 1.8 35.2
08:45 1020 30.12 849 25.07 5.7 42.3 75 1.6 34.8
08:50 1020 30.12 849 25.07 5.7 42.3 76 1.8 35.3
08:55 1020 30.12 849 25.07 6.1 42.9 73 1.5 34.8
09:00 1020 30.12 849 25.07 6.3 43.4 70 1.3 34.3
09:05 1020 30.12 849 25.07 6.7 44 63 0.1 32.1
09:10 1020 30.12 849 25.07 6.7 44 66 0.7 33.3
09:15 1020 30.12 849 25.07 6.4 43.5 67 0.8 33.4
09:20 1020 30.12 849 25.07 6.4 43.5 67 0.7 33.2
09:25 1020 30.12 849 25.07 6.3 43.4 67 0.7 33.2
09:30 1020 30.12 849 25.07 6.4 43.4 68 0.9 33.7
09:35 1020 30.12 849 25.07 7.3 45.2 64 1 33.9
09:40 1020 30.12 849 25.07 7.9 46.2 60 0.6 33
09:45 1020 30.12 849 25.07 7.8 46 60 0.5 32.9
09:50 1020 30.12 849 25.07 7.4 45.3 61 0.5 32.9
09:55 1020 30.12 849 25.07 7.8 46 58 0.1 32.2
10:00 1020 30.12 849 25.07 7.2 45 59 -0.2 31.6
10:05 1020 30.12 849 25.07 7.2 45 57 -0.7 30.8
10:10 1020 30.12 849 25.07 7.7 45.9 56 -0.5 31.1
10:15 1019 30.09 849 25.07 9.1 48.3 51 -0.4 31.3
10:20 1019 30.09 849 25.07 9.7 49.5 49 -0.4 31.4
10:25 1019 30.09 849 25.07 9.7 49.5 49 -0.5 31
10:30 1019 30.09 848 25.04 9.5 49 48 -0.9 30.4
10:35 1019 30.09 848 25.04 10.1 50.2 46 -0.9 30.4
10:40 1019 30.09 848 25.04 10.4 50.8 45 -0.8 30.5
10:45 1019 30.09 848 25.04 10.1 50.3 45 -1.1 30
10:50 1019 30.09 848 25.04 10 50 44 -1.5 29.3
10:55 1019 30.09 848 25.04 9.5 49.1 47 -1.3 29.7
11:00 1019 30.09 848 25.04 10.1 50.2 45 -1.2 29.9
11:05 1019 30.09 848 25.04 10.6 51 43 -1.5 29.3
11:10 1019 30.09 848 25.04 9.7 49.5 45 -1.7 28.9
11:15 1019 30.09 848 25.04 9.3 48.7 47 -1.3 29.6
11:20 1019 30.09 848 25.04 10.4 50.8 42 -1.8 28.7
11:25 1019 30.09 848 25.04 10.8 51.5 42 -1.5 29.4
11:30 1019 30.09 848 25.04 11.4 52.6 40 -1.6 29.1
11:35 1019 30.09 848 25.04 11.6 52.8 42 -0.7 30.7
11:40 1019 30.09 848 25.04 11.9 53.4 41 -0.8 30.5
11:45 1019 30.09 848 25.04 11.3 52.3 43 -0.8 30.6
11:50 1019 30.09 848 25.04 11.5 52.6 44 -0.4 31.3
11:55 1018 30.06 848 25.04 12.1 53.7 43 0 32.1
12:00 1018 30.06 848 25.04 11.6 52.9 44 -0 31.9
12:05 1018 30.06 848 25.04 11.6 53 46 0.3 32.6
12:10 1018 30.06 848 25.04 12 53.6 45 0.5 33
12:15 1018 30.06 847 25.01 12.2 54 45 0.7 33.2
12:20 1018 30.06 847 25.01 12 53.5 45 0.5 32.9
12:25 1018 30.06 847 25.01 11.8 53.2 44 0.1 32.2
12:30 1018 30.06 847 25.01 12.7 54.8 43 0.6 33.1
12:35 1018 30.06 847 25.01 12.3 54.1 44 0.4 32.8
12:40 1018 30.06 847 25.01 12.1 53.8 44 0.3 32.5
12:45 1018 30.06 847 25.01 12.3 54.1 42 -0.1 31.9
12:50 1018 30.06 847 25.01 12.4 54.3 43 0.2 32.3
12:55 1018 30.06 847 25.01 11.7 53.1 44 0.1 32.1
13:00 1018 30.06 847 25.01 13 55.3 41 -0.1 31.9
13:05 1017 30.03 847 25.01 13.2 55.8 41 0.5 32.8
13:10 1017 30.03 847 25.01 13 55.5 41 0.1 32.2
13:15 1017 30.03 847 25.01 13.3 56 41 0.4 32.8
13:20 1017 30.03 847 25.01 13.6 56.4 40 0.3 32.6
13:25 1017 30.03 846 24.98 14.1 57.4 36 -0.8 30.6
13:30 1017 30.03 846 24.98 14.1 57.4 38 0.1 32.2
13:35 1017 30.03 846 24.98 13.6 56.5 38 -0.5 31.1
13:40 1017 30.03 846 24.98 13 55.3 38 -0.9 30.4
13:45 1017 30.03 846 24.98 14 57.2 37 -0.2 31.6
13:50 1017 30.03 846 24.98 14.1 57.3 38 -0.1 31.8
13:55 1017 30.03 846 24.98 13.8 56.9 38 -0.3 31.4
14:00 1017 30.03 846 24.98 14.4 57.9 36 -0.5 31
14:05 1017 30.03 846 24.98 14.7 58.5 35 -0.6 31
14:10 1017 30.03 846 24.98 14.6 58.2 35 -0.8 30.5
14:15 1017 30.03 846 24.98 14.5 58 34 -1.1 30.1
14:20 1017 30.03 846 24.98 14.8 58.6 32 -1.6 29.1
14:25 1017 30.03 846 24.98 14.4 57.8 33 -1.7 29
14:30 1016 30 846 24.98 15.1 59.2 29 -2.7 27.1
14:35 1016 30 845 24.95 15.1 59.2 26 -4.2 24.5
14:40 1016 30 845 24.95 15.4 59.8 23 -5.5 22.1
14:45 1016 30 845 24.95 14.6 58.3 25 -5.2 22.6
14:50 1016 30 845 24.95 14.4 57.8 23 -6.4 20.5
14:55 1016 30 845 24.95 15 58.9 21 -6.9 19.5
15:00 1016 30 845 24.95 15.4 59.7 24 -4.8 23.3
15:05 1016 30 845 24.95 15.7 60.2 24 -4.5 23.8
15:10 1016 30 845 24.95 16.1 61.1 22 -5.3 22.5
15:15 1016 30 845 24.95 16.1 61 22 -5.4 22.3
15:20 1016 30 845 24.95 15.4 59.8 22 -5.9 21.4
15:25 1016 30 845 24.95 14.8 58.7 22 -6.6 20
15:30 1016 30 845 24.95 15.1 59.1 24 -5.5 22
15:35 1016 30 845 24.95 15.3 59.5 24 -5.1 22.8
15:40 1016 30 845 24.95 15.4 59.7 23 -5.3 22.4
15:45 1016 30 845 24.95 16 60.9 21 -6.4 20.5
15:50 1016 30 845 24.95 16.2 61.1 23 -5.2 22.7
15:55 1016 30 845 24.95 16 60.8 23 -5 23
16:00 1016 30 845 24.95 15 59.1 23 -5.8 21.5
16:05 1016 30 845 24.95 14.8 58.6 25 -5.1 22.8
16:10 1015 29.97 845 24.95 15.1 59.1 25 -4.6 23.7
16:15 1015 29.97 845 24.95 15.1 59.1 25 -5 23.1
16:20 1015 29.97 845 24.95 14.7 58.5 24 -5.4 22.3
16:25 1015 29.97 845 24.95 14.7 58.4 24 -5.7 21.7
16:30 1015 29.97 844 24.92 14.7 58.4 23 -6.2 20.9
16:35 1015 29.97 844 24.92 14.6 58.2 24 -6 21.3
16:40 1015 29.97 844 24.92 14.8 58.6 24 -5.8 21.6
16:45 1015 29.97 844 24.92 15 59 23 -5.7 21.8
16:50 1015 29.97 844 24.92 15 59.1 22 -6.2 20.9
16:55 1015 29.97 844 24.92 15.4 59.7 20 -7.2 19
17:00 1015 29.97 844 24.92 15.6 60 21 -6.8 19.7
17:05 1015 29.97 844 24.92 15.8 60.4 20 -7 19.3
17:10 1015 29.97 844 24.92 15.6 60.1 22 -6.2 20.8
17:15 1015 29.97 844 24.92 15.6 60.1 21 -6.4 20.5
17:20 1015 29.97 844 24.92 15.6 60.2 22 -6.2 20.9
17:25 1015 29.97 844 24.92 15.3 59.5 21 -6.8 19.8
17:30 1015 29.97 844 24.92 15.1 59.2 20 -7.5 18.5
17:35 1015 29.97 844 24.92 15.4 59.6 22 -5.9 21.4
17:40 1015 29.97 844 24.92 15.8 60.4 21 -6.3 20.6
17:45 1015 29.97 844 24.92 15.5 59.9 21 -7 19.4
17:50 1015 29.97 844 24.92 15.4 59.8 22 -6.3 20.6
17:55 1015 29.97 844 24.92 15.1 59.3 22 -6.3 20.7
18:00 1015 29.97 844 24.92 15 59 22 -6.4 20.5
18:05 1015 29.97 844 24.92 15 59.1 22 -6.3 20.7
18:10 1015 29.97 844 24.92 15 59 23 -6.2 20.9
18:15 1015 29.97 844 24.92 15 59.1 23 -5.7 21.8
18:20 1015 29.97 844 24.92 15 58.9 23 -6 21.3
18:25 1015 29.97 844 24.92 14.9 58.8 23 -6 21.2
18:30 1015 29.97 844 24.92 14.8 58.7 24 -5.6 21.8
18:35 1015 29.97 844 24.92 14.9 58.7 23 -5.9 21.3
18:40 1015 29.97 844 24.92 14.8 58.7 21 -7.3 18.8
18:45 1015 29.97 844 24.92 14.8 58.6 22 -6.5 20.3
18:50 1015 29.97 844 24.92 14.7 58.4 22 -6.6 20
18:55 1015 29.97 844 24.92 14.6 58.3 22 -6.8 19.8
19:00 1015 29.97 844 24.92 14.7 58.4 23 -6.3 20.6
19:05 1015 29.97 844 24.92 14.6 58.4 23 -6.4 20.6
19:10 1015 29.97 844 24.92 14.6 58.2 23 -6.5 20.3
19:15 1015 29.97 844 24.92 14.6 58.3 22 -6.6 20.1
19:20 1015 29.97 844 24.92 14.6 58.3 23 -6 21.1
19:25 1015 29.97 844 24.92 14.6 58.2 23 -6.5 20.2
19:30 1015 29.97 844 24.92 14.5 58.1 24 -5.8 21.5
19:35 1015 29.97 844 24.92 14.4 57.9 25 -5.2 22.7
19:40 1015 29.97 844 24.92 14.3 57.7 26 -4.9 23.1
19:45 1015 29.97 844 24.92 14 57.3 26 -4.9 23.2
19:50 1015 29.97 844 24.92 13.8 56.9 27 -4.9 23.2
19:55 1015 29.97 844 24.92 13.8 56.8 23 -6.7 20
20:00 1015 29.97 844 24.92 13.9 57.1 22 -7.2 19
20:05 1015 29.97 844 24.92 13.9 57 25 -6 21.3
20:10 1015 29.97 844 24.92 13.6 56.5 26 -5.6 21.9
20:15 1015 29.97 844 24.92 13.6 56.5 24 -6.6 20.1
20:20 1015 29.97 845 24.95 13.7 56.7 25 -6 21.2
20:25 1015 29.97 845 24.95 13.7 56.6 26 -5.5 22.1
20:30 1016 30 845 24.95 13.5 56.3 27 -5.2 22.6
20:35 1016 30 845 24.95 13.3 55.9 28 -5 23
20:40 1016 30 845 24.95 13.2 55.8 26 -5.9 21.5
20:45 1016 30 845 24.95 13.4 56.1 29 -4.3 24.3
20:50 1016 30 845 24.95 13 55.4 30 -4.3 24.3
20:55 1016 30 845 24.95 12.7 54.9 30 -4.2 24.4
21:00 1016 30 845 24.95 12.6 54.6 31 -4 24.9
21:05 1016 30 845 24.95 12.5 54.5 31 -4.1 24.7
21:10 1016 30 845 24.95 12.6 54.6 31 -4.3 24.3
21:15 1016 30 845 24.95 12.7 54.8 29 -4.7 23.6
21:20 1016 30 845 24.95 12.8 55.1 30 -4.3 24.3
21:25 1016 30 845 24.95 12.8 55 31 -3.9 25.1
21:30 1016 30 846 24.98 12.6 54.6 32 -3.6 25.5
21:35 1016 30 846 24.98 12.4 54.4 32 -3.6 25.6
21:40 1016 30 846 24.98 12.3 54.2 33 -3.6 25.5
21:45 1017 30.03 846 24.98 12.3 54.1 33 -3.5 25.7
21:50 1017 30.03 846 24.98 12.2 53.9 34 -3.3 26.1
21:55 1017 30.03 846 24.98 12.1 53.7 34 -3.2 26.2
22:00 1017 30.03 846 24.98 12 53.5 34 -3.4 25.9
22:05 1017 30.03 846 24.98 11.9 53.5 34 -3.5 25.8
22:10 1017 30.03 846 24.98 11.9 53.4 34 -3.4 26
22:15 1017 30.03 846 24.98 11.8 53.3 34 -3.3 26
22:20 1017 30.03 846 24.98 11.8 53.2 35 -3 26.5
22:25 1017 30.03 846 24.98 11.6 53 36 -2.8 26.9
22:30 1017 30.03 846 24.98 11.5 52.7 38 -2.5 27.6
22:35 1017 30.03 846 24.98 11.4 52.6 37 -2.6 27.4
22:40 1017 30.03 847 25.01 11.4 52.4 40 -1.7 28.9
22:45 1017 30.03 846 24.98 11.2 52.1 41 -1.4 29.5
22:50 1017 30.03 847 25.01 10.9 51.7 46 -0.3 31.5
22:55 1017 30.03 847 25.01 10.6 51 50 0.5 32.9
23:00 1018 30.06 847 25.01 10.2 50.3 54 1.3 34.3
23:05 1018 30.06 847 25.01 9.8 49.7 58 2 35.6
23:10 1018 30.06 847 25.01 9.4 48.8 58 1.6 35
23:15 1018 30.06 847 25.01 9.3 48.7 63 2.6 36.7
23:20 1018 30.06 847 25.01 9 48.1 65 2.7 36.9
23:25 1018 30.06 847 25.01 8.9 47.9 65 2.7 36.9
23:30 1018 30.06 847 25.01 8.5 47.3 68 2.9 37.3
23:35 1018 30.06 847 25.01 8.4 47.1 69 3.1 37.5
23:40 1018 30.06 847 25.01 8.3 46.9 69 3 37.4
23:45 1018 30.06 847 25.01 8.3 46.9 69 3 37.4
23:50 1018 30.06 847 25.01 8.2 46.7 71 3.3 37.9
23:55 1018 30.06 847 25.01 8.1 46.7 72 3.5 38.2
24:00 1018 30.06 847 25.01 8.1 46.6 73 3.6 38.5